ADDS METAR Data INFO
IDs: Format: Raw Decoded Include TAF

Data at: 0251 UTC 17 Jan 2018

KMWO 170235Z AUTO 26005KT 10SM OVC022 M14/M18 A3058 RMK AO2 PWINO T11351175
KMWO 170215Z AUTO 27008KT 10SM OVC022 M13/M18 A3057 RMK AO2 PWINO T11341177
KMWO 170155Z AUTO 30006KT 10SM OVC022 M13/M18 A3057 RMK AO2 PWINO T11331176
KMWO 170135Z AUTO 27008KT 10SM OVC020 M13/M17 A3057 RMK AO2 PWINO T11321174
KMWO 170115Z AUTO 29006KT 10SM OVC020 M13/M17 A3057 RMK AO2 PWINO T11321173
KMWO 170055Z AUTO 26005KT 10SM OVC020 M13/M18 A3057 RMK AO2 PWINO T11321176
KMWO 170035Z AUTO 27006KT 10SM OVC022 M13/M18 A3056 RMK AO2 PWINO T11321175
KMWO 170015Z AUTO 26006KT 10SM OVC020 M13/M18 A3056 RMK AO2 PWINO T11321176
KMWO 162355Z AUTO 28007KT 10SM OVC022 M13/M18 A3056 RMK AO2 PWINO T11311176 11120 21136 410251169
KMWO 162335Z AUTO 25007KT 10SM OVC025 M13/M18 A3055 RMK AO2 PWINO T11311177
KMWO 162315Z AUTO 27007KT 10SM OVC023 M13/M18 A3055 RMK AO2 PWINO T11301175
KMWO 162255Z AUTO 28008KT 10SM OVC025 M13/M18 A3054 RMK AO2 PWINO T11301176
KMWO 162235Z AUTO 28005KT 10SM OVC025 M13/M18 A3054 RMK AO2 PWINO T11281175
KMWO 162215Z AUTO 28007KT 10SM OVC027 M13/M18 A3053 RMK AO2 PWINO T11291179
KMWO 162155Z AUTO 25007KT 10SM BKN020 OVC025 M13/M18 A3053 RMK AO2 PWINO T11281180
KMWO 162135Z AUTO 24009KT 10SM CLR M13/M18 A3052 RMK AO2 PWINO T11251180
KMWO 162115Z AUTO 24009KT 10SM BKN029 M12/M18 A3052 RMK AO2 PWINO T11221178
KMWO 162055Z AUTO 23007KT 10SM OVC027 M12/M18 A3052 RMK AO2 PWINO T11231179
KMWO 162035Z AUTO 25006KT 10SM BKN025 OVC029 M12/M18 A3051 RMK AO2 PWINO T11221180
KMWO 162015Z AUTO 23006KT 10SM SCT022 OVC029 M12/M18 A3051 RMK AO2 PWINO T11211178
KMWO 161955Z AUTO 24008KT 10SM OVC027 M13/M18 A3050 RMK AO2 PWINO T11251184
KMWO 161935Z AUTO 25006KT 10SM OVC023 M13/M19 A3050 RMK AO2 PWINO T11271187
KMWO 161915Z AUTO 23008KT 10SM CLR M13/M19 A3050 RMK AO2 PWINO T11281188
KMWO 161855Z AUTO 24007KT 10SM CLR M13/M19 A3050 RMK AO2 PWINO T11291187
KMWO 161835Z AUTO 29008KT 10SM CLR M13/M19 A3050 RMK AO2 PWINO T11311190
KMWO 161815Z AUTO 24009KT 10SM CLR M13/M19 A3051 RMK AO2 PWINO T11331191
KMWO 161755Z AUTO 24007KT 10SM CLR M14/M19 A3051 RMK AO2 PWINO T11361193 11135 21169
KMWO 161735Z AUTO 22011KT 10SM CLR M14/M19 A3053 RMK AO2 PWINO T11391193
KMWO 161715Z AUTO 22009KT 10SM CLR M14/M20 A3054 RMK AO2 PWINO T11421196
KMWO 161655Z AUTO 25009KT 10SM CLR M14/M20 A3055 RMK AO2 PWINO T11451199
KMWO 161635Z AUTO 22007KT 10SM CLR M15/M20 A3056 RMK AO2 PWINO T11491197
KMWO 161615Z AUTO 24007KT 10SM CLR M16/M20 A3055 RMK AO2 PWINO T11581203
KMWO 161555Z AUTO 24008KT 10SM CLR M16/M20 A3056 RMK AO2 PWINO T11581201
KMWO 161535Z AUTO 26008KT 10SM CLR M16/M20 A3056 RMK AO2 PWINO T11621203
KMWO 161515Z AUTO 28005KT 10SM CLR M17/M20 A3055 RMK AO2 PWINO T11661204
KMWO 161455Z AUTO 27006KT 10SM CLR M16/M20 A3055 RMK AO2 PWINO T11621200
KMWO 161435Z AUTO 28005KT 10SM CLR M16/M20 A3054 RMK AO2 PWINO T11601198
KMWO 161415Z AUTO 25005KT 10SM CLR M15/M19 A3054 RMK AO2 PWINO T11531192
KMWO 161355Z AUTO 25006KT 10SM CLR M15/M19 A3053 RMK AO2 PWINO T11521191
KMWO 161335Z AUTO 26006KT 10SM CLR M15/M19 A3053 RMK AO2 PWINO T11531192
KMWO 161315Z AUTO 25009KT 10SM CLR M15/M19 A3053 RMK AO2 PWINO T11501191
KMWO 161255Z AUTO 24006KT 10SM CLR M15/M19 A3053 RMK AO2 PWINO T11491188
KMWO 161235Z AUTO 25007KT 10SM CLR M15/M19 A3052 RMK AO2 PWINO T11471187
KMWO 161215Z AUTO 26008KT 10SM CLR M14/M18 A3051 RMK AO2 PWINO T11441184
KMWO 161155Z AUTO 28003KT 10SM CLR M14/M18 A3051 RMK AO2 PWINO T11441182 11108 21145
KMWO 161135Z AUTO 28003KT 10SM CLR M14/M18 A3050 RMK AO2 PWINO T11431184
KMWO 161115Z AUTO 28003KT 10SM CLR M14/M18 A3050 RMK AO2 PWINO T11411181
KMWO 161055Z AUTO 29004KT 10SM CLR M14/M18 A3050 RMK AO2 PWINO T11411183
KMWO 161035Z AUTO 29004KT 10SM CLR M14/M18 A3049 RMK AO2 PWINO T11401183
KMWO 161015Z AUTO 30008KT 10SM BKN120 M14/M18 A3049 RMK AO2 PWINO T11381182
KMWO 160955Z AUTO 27008KT 10SM BKN120 M14/M18 A3049 RMK AO2 PWINO T11361181
KMWO 160935Z AUTO 28007KT 10SM SCT120 M13/M17 A3048 RMK AO2 PWINO T11311172
KMWO 160915Z AUTO 29008KT 10SM CLR M13/M17 A3047 RMK AO2 PWINO T11291168
KMWO 160855Z AUTO 27006KT 10SM SCT120 M13/M17 A3047 RMK AO2 PWINO T11251168
KMWO 160835Z AUTO 27010KT 10SM BKN120 M12/M17 A3047 RMK AO2 PWINO T11231167
KMWO 160815Z AUTO 29005KT 10SM BKN110 M12/M17 A3046 RMK AO2 PWINO T11211165
KMWO 160755Z AUTO 27006KT 10SM BKN120 M12/M16 A3046 RMK AO2 PWINO T11201164
KMWO 160735Z AUTO 29009KT 10SM SCT110 M12/M17 A3045 RMK AO2 PWINO T11191166
KMWO 160715Z AUTO 28011G14KT 10SM SCT120 M12/M16 A3045 RMK AO2 PWINO T11171163
KMWO 160655Z AUTO 28007KT 10SM CLR M11/M16 A3044 RMK AO2 PWINO T11141159
KMWO 160635Z AUTO 28007KT 10SM CLR M11/M16 A3043 RMK AO2 PWINO T11121155
KMWO 160615Z AUTO 27007KT 10SM SCT120 M11/M15 A3042 RMK AO2 PWINO T11091151
KMWO 160555Z AUTO 28005KT 10SM OVC110 M11/M15 A3042 RMK AO2 PWINO T11071152 11025 21108
KMWO 160535Z AUTO 28007KT 10SM OVC100 M11/M15 A3042 RMK AO2 PWINO T11061151
KMWO 160515Z AUTO 26006KT 10SM OVC095 M10/M14 A3042 RMK AO2 PWINO T10991139
KMWO 160455Z AUTO 27008KT 10SM SCT017 OVC024 M09/M12 A3041 RMK AO2 PWINO T10871123
KMWO 160435Z AUTO 26010G17KT 10SM OVC020 M08/M12 A3041 RMK AO2 PWINO T10811117
KMWO 160415Z AUTO 26013G18KT 10SM OVC018 M07/M10 A3040 RMK AO2 PWINO T10691103
KMWO 160355Z AUTO 25009KT 10SM OVC018 M06/M10 A3039 RMK AO2 PWINO T10611100
KMWO 160335Z AUTO 29012KT 10SM BKN016 OVC020 M05/M09 A3037 RMK AO2 PWINO T10551092
KMWO 160315Z AUTO 30013KT 10SM SCT022 BKN030 OVC040 M05/M08 A3036 RMK AO2 PWINO T10451076
KMWO 160255Z AUTO 25010KT 10SM BKN016 OVC021 M03/M05 A3034 RMK AO2 PWINO T10271047
KMWO 160235Z AUTO 20006KT 10SM BKN017 OVC024 M03/M05 A3033 RMK AO2 PWINO T10271046
KMWO 160215Z AUTO 22005KT 10SM BKN017 OVC022 M03/M05 A3033 RMK AO2 PWINO T10271046
KMWO 160155Z AUTO 21005KT 10SM SCT018 OVC025 M03/M05 A3032 RMK AO2 PWINO T10291047
KMWO 160135Z AUTO 23006KT 10SM OVC027 M03/M05 A3032 RMK AO2 PWINO T10281048
KMWO 160115Z AUTO 23005KT 10SM OVC017 M03/M05 A3032 RMK AO2 PWINO T10271047
KMWO 160055Z AUTO 24006KT 10SM OVC017 M03/M05 A3033 RMK AO2 PWINO T10261049
KMWO 160035Z AUTO 24006KT 10SM OVC017 M03/M05 A3032 RMK AO2 PWINO T10261049
KMWO 160015Z AUTO 24007KT 10SM OVC015 M03/M05 A3032 RMK AO2 PWINO T10261049
KMWO 152355Z AUTO 25005KT 10SM OVC017 M03/M05 A3032 RMK AO2 PWINO T10261049 11023 21036 410231123
KMWO 152335Z AUTO 23005KT 10SM OVC017 M03/M05 A3031 RMK AO2 PWINO T10261050
KMWO 152315Z AUTO 25009KT 10SM OVC017 M02/M05 A3031 RMK AO2 PWINO T10241051
KMWO 152255Z AUTO 24008KT 10SM OVC017 M02/M05 A3030 RMK AO2 PWINO T10231050
KMWO 152235Z AUTO 23008KT 10SM OVC017 M02/M04 A3030 RMK AO2 PWINO T10231045
KMWO 152215Z AUTO 23008KT 10SM OVC019 M02/M04 A3029 RMK AO2 PWINO T10241043
KMWO 152155Z AUTO 23008KT 10SM BKN015 OVC021 M02/M04 A3029 RMK AO2 PWINO T10241040
KMWO 152135Z AUTO 23009KT 7SM SCT010 BKN020 OVC025 M02/M04 A3028 RMK AO2 PWINO T10241039
KMWO 152115Z AUTO 22008KT 4SM BKN008 BKN012 OVC018 M02/M04 A3026 RMK AO2 PWINO T10241037
KMWO 152055Z AUTO 21009KT 1 1/2SM BKN008 OVC015 M02/M04 A3025 RMK AO2 PWINO T10241035
KMWO 152035Z AUTO 20008KT 1 1/2SM BKN008 OVC016 M03/M04 A3024 RMK AO2 PWINO T10261039
KMWO 152015Z AUTO 20010KT 1 1/2SM BKN008 OVC016 M03/M04 A3023 RMK AO2 PWINO T10271040
KMWO 151955Z AUTO 20007KT 1 1/2SM BKN008 OVC014 M03/M04 A3023 RMK AO2 PWINO T10271040
KMWO 151935Z AUTO 20006KT 1SM OVC008 M03/M04 A3022 RMK AO2 PWINO T10301043
KMWO 151915Z AUTO 19009KT 3/4SM OVC008 M03/M05 A3023 RMK AO2 PWINO T10311045
KMWO 151855Z AUTO 19007KT 1SM OVC010 M03/M05 A3022 RMK AO2 PWINO T10321048
KMWO 151835Z AUTO 19009KT 3/4SM OVC012 M03/M05 A3023 RMK AO2 PWINO T10341050
KMWO 151815Z AUTO 19010G15KT 3/4SM OVC010 M04/M05 A3024 RMK AO2 PWINO T10351053
KMWO 151755Z AUTO 18008KT 3/4SM OVC010 M04/M05 A3024 RMK AO2 PWINO T10361055 11036 21077
KMWO 151735Z AUTO 17008G15KT 1SM OVC010 M04/M06 A3026 RMK AO2 PWINO T10371058
KMWO 151715Z AUTO 17008KT 1 1/4SM OVC012 M04/M06 A3027 RMK AO2 PWINO T10391061
KMWO 151655Z AUTO 19010KT 2SM OVC017 M04/M07 A3029 RMK AO2 PWINO T10421067
KMWO 151635Z AUTO 19009KT 1 3/4SM OVC013 M04/M07 A3030 RMK AO2 PWINO T10431069
KMWO 151615Z AUTO 20009KT 1 3/4SM BKN012 OVC026 M04/M07 A3030 RMK AO2 PWINO T10431070
KMWO 151555Z AUTO 18009KT 7SM SCT024 BKN030 OVC035 M04/M07 A3031 RMK AO2 PWINO T10451074
KMWO 151535Z AUTO 18008KT 1 3/4SM OVC014 M05/M07 A3030 RMK AO2 PWINO T10491072
KMWO 151515Z AUTO 19007KT 2SM OVC011 M05/M07 A3031 RMK AO2 PWINO T10531074
KMWO 151455Z AUTO 18008KT 1SM OVC008 M06/M08 A3032 RMK AO2 PWINO T10571079